AirNav   Air Wisconsin pilot careers
 
 1576 users online  

7N8 Butter Valley Golf Port Airport
Bally, Pennsylvania, USA

GOING TO BALLY?


FAA INFORMATION EFFECTIVE 21 JUNE 2018

Location

FAA Identifier: 7N8
Lat/Long: 40-23-50.7800N / 075-33-47.4800W
40-23.846333N / 075-33.791333W
40.3974389 / -75.5631889
(estimated)
Elevation: 500 ft. / 152 m (estimated)
Variation: 11W (1985)
From city: 1 mile E of BALLY, PA
Time zone: UTC -4 (UTC -5 during Standard Time)
Zip code: 19504

Airport Operations

Airport use: Open to the public
Control tower: no
ARTCC: NEW YORK CENTER
FSS: WILLIAMSPORT FLIGHT SERVICE STATION
NOTAMs facility: IPT (NOTAM-D service available)
Attendance: DAYLIGHT HOURS
Wind indicator: yes
Segmented circle: no

Airport Communications

CTAF: 122.9
WX AWOS-3 at UKT (9 nm E): 119.475 (215-538-7610)
WX ASOS at PTW (9 nm S): 119.425 (610-495-0823)
WX AWOS-3 at XLL (11 nm N): 127.875 (610-231-3111)
WX AWOS-3 at CKZ (12 nm E): 126.325 (215-257-7291)
WX ASOS at ABE (16 nm N): PHONE 610-266-3579
WX ASOS at RDG (18 nm W): PHONE 610-372-9863

Nearby radio navigation aids

VOR radial/distance  VOR name  Freq  Var
PTWr008/10.5POTTSTOWN VORTAC116.5009W
ETXr162/12.3EAST TEXAS VOR/DME110.2009W
FJCr204/20.4ALLENTOWN VORTAC117.5010W
MXEr019/29.2MODENA VORTAC113.2009W
ARDr296/31.2YARDLEY VOR/DME108.2010W
PNEr317/(31.6)NORTH PHILADELPHIA VOR112.0010W
LRPr072/37.3LANCASTER VOR/DME117.3009W
SBJr263/39.1SOLBERG VOR/DME112.9010W

 
NDB name  Hdg/Dist  Freq  Var  ID
AMBLER334/20.727512WING .. -. --.

Airport Services

Parking: hangars and tiedowns
Airframe service: NONE
Powerplant service: NONE

Runway Information

Runway 16/34

Dimensions: 2420 x 85 ft. / 738 x 26 m
Surface: asphalt/turf, in good condition
1535 X 24 ASPH INSERT AT S END; REMAINDER TURF.
Runway edge markings: MARKED WITH YELLOW WOOD PANELS; TURF RWY EDGES MARKED WITH TIRES PAINTED YELLOW.
RUNWAY 16  RUNWAY 34
Traffic pattern: leftleft
Displaced threshold: 205 ft.
DSPLCD THLD MKD BY 3 YELLOW TIRES.
250 ft.
DSPLCD THLD MKD BY 3 WHITE LINES.
Markings: basic, in fair condition
Obstructions: 12 ft. road, 69 ft. from runway, 50 ft. right of centerline, 5:1 slope to clear
APCH RATIO 22:1 TO 205 FT DSPLCD THLD.
10 ft. road
APCH RATIO 25:1 TO 250 FT DSPLCD THLD.

Airport Ownership and Management from official FAA records

Ownership: Privately-owned
Owner: JOHN L GEHMAN
SOUTH 7TH ST
BALLY, PA 19503
Phone 610-845-2491
Manager: JOHN L. GEHMAN
SOUTH 7TH ST, BOX 207
BALLY, PA 19503
Phone 610-845-2491

Airport Operational Statistics

Aircraft based on the field: 16
Single engine airplanes: 15
Multi engine airplanes: 1
    
Aircraft operations: avg 57/week *
67% transient general aviation
33% local general aviation
* for 12-month period ending 01 May 2018

Additional Remarks

RWY 16/34 LCTD IN MIDDLE OF GOLF COURSE.
TREES & SUBSTANTIAL TRRN ELEV CHGS WITHIN 125 FT OF EACH RWY EDGE.
FOR CD CTC ABE APCH AT 800-728-6322.
RWY 34; 112 FT TREE LINE 1460 FT FROM RWY END 231 FT R; 15:1 SLOPE TO DISP THLD.

Instrument Procedures

There are no published instrument procedures at 7N8.

Some nearby airports with instrument procedures:

KUKT - Quakertown Airport (9 nm E)
KPTW - Heritage Field Airport (9 nm S)
N47 - Pottstown Municipal Airport (10 nm SW)
KXLL - Allentown Queen City Municipal Airport (11 nm N)
KCKZ - Pennridge Airport (12 nm E)
N10 - Perkiomen Valley Airport (13 nm SE)
KABE - Lehigh Valley International Airport (16 nm N)
KRDG - Reading Regional Airport/Carl A Spaatz Field (18 nm W)
 
Loc | Ops | Rwys | IFR | FBO | Links
Com | Nav | Svcs | Stats | Notes


 
Area around 7N8 (Butter Valley Golf Port Airport)
 
Road maps at: MapQuest Bing Google
 
Aerial photo
WARNING: Photo may not be current or correct
Aerial photo of 7N8 (Butter Valley Golf Port Airport)
Photo by David Newcomer
Photo taken 04-Jul-2017
looking north from 1,500' altitude.

Do you have a better or more recent aerial photo of Butter Valley Golf Port Airport that you would like to share? If so, please send us your photo.

 
Sectional chart

 
Airport distance calculator
Flying to Butter Valley Golf Port Airport? Find the distance to fly.

From to 7N8

Sunrise and sunset
Times for 17-Jul-2018
 Local
(UTC-4)
 Zulu
(UTC)
Morning civil twilight05:1509:15
Sunrise05:4709:47
Sunset20:2900:29
Evening civil twilight21:0101:01

Current date and time
Zulu (UTC)  17-Jul-2018 20:23:24
Local (UTC-4)  17-Jul-2018 16:23:24
 
METAR
KUKT 
9nm E 
171955Z AUTO 20007KT 8SM SCT015 BKN023 BKN032 23/23 A2983 RMK A01 P0007
KPTW 
10nm S 
171954Z AUTO VRB03KT 8SM -RA SCT100 SCT120 21/21 A2984 RMK AO2 LTG DSNT E-SW TSE36 SLP099 P0042 T02110211 $
KXLL 
11nm N 
171955Z AUTO 21004KT 10SM -RA SCT033 BKN041 BKN048 24/22 A2982 RMK AO2 LTG DSNT NE THRU S
KCKZ 
12nm E 
171955Z AUTO 23004KT 4SM VCTS -RA BKN006 BKN028 OVC041 22/22 A2984 RMK AO2 LTG DSNT ALQDS
KABE 
16nm N 
171951Z 25005KT 7SM -RA FEW046 SCT090 BKN110 24/21 A2981 RMK AO2 LTG DSNT E AND SE SLP093 P0001 T02390206
KRDG 
19nm W 
171954Z 00000KT 10SM -RA SCT019 BKN032 OVC100 23/23 A2980 RMK AO2 LTG DSNT S TSE12 SLP092 P0007 T02330233
TAF
KABE 
16nm N 
171725Z 1718/1818 30012G20KT 6SM HZ VCTS BKN035CB OVC200 TEMPO 1718/1722 2SM TSRA BKN035CB FM172200 27010KT P6SM VCSH BKN060 TEMPO 1722/1801 4SM SHRA BKN035 FM180100 32008KT P6SM SCT090
KRDG 
19nm W 
171725Z 1718/1818 30012KT 6SM HZ VCTS BKN040CB OVC100 TEMPO 1718/1722 3SM TSRA BKN025CB FM172200 27010KT P6SM VCSH OVC050 TEMPO 1722/1801 4SM SHRA BKN035 FM180100 31008KT P6SM SCT090
NOTAMs
Click for the latest NOTAMs
NOTAMs are issued by the DoD/FAA and will open in a separate window not controlled by AirNav.

 

 
 

Aviation Businesses, Services, and Facilities

  
 Business Name 
 
 Contact 
 
 Services / Description 
 
Distance
 
Comments
  
Butter Valley Golf Port 610-845-2491
no information available

If you are affiliated with Butter Valley Golf Port and would like to show here your services, contact info, web link, logo, and more, click here
on airport  
   2 read write
 

Would you like to see your business listed on this page?

 If your business provides an interesting product or service to pilots, flight crews, aircraft, or users of the Butter Valley Golf Port Airport, you should consider listing it here.  To start the listing process, click on the button below
 
Add a business
 

Other Pages about Butter Valley Golf Port Airport

www.buttervalley.com/airport.htm
 
Update a link
 
Copyright © AirNav, LLC. All rights reserved. Privacy Policy  Contact